sensor_id;sensor_type;location;lat;lon;timestamp;temperature;humidity
64869;DHT22;51349;52.424;10.840;2023-07-09T00:00:35;17.60;99.90
64869;DHT22;51349;52.424;10.840;2023-07-09T00:05:35;17.60;99.90
64869;DHT22;51349;52.424;10.840;2023-07-09T00:10:36;17.50;99.90
64869;DHT22;51349;52.424;10.840;2023-07-09T00:15:37;17.40;99.90
64869;DHT22;51349;52.424;10.840;2023-07-09T00:20:37;17.30;99.90
64869;DHT22;51349;52.424;10.840;2023-07-09T00:25:38;17.30;99.90
64869;DHT22;51349;52.424;10.840;2023-07-09T00:30:39;17.20;99.90
64869;DHT22;51349;52.424;10.840;2023-07-09T00:35:44;17.10;99.90
64869;DHT22;51349;52.424;10.840;2023-07-09T00:40:56;17.10;99.90
64869;DHT22;51349;52.424;10.840;2023-07-09T00:51:28;16.90;99.90
64869;DHT22;51349;52.424;10.840;2023-07-09T00:56:35;16.90;99.90
64869;DHT22;51349;52.424;10.840;2023-07-09T01:01:38;16.80;99.90
64869;DHT22;51349;52.424;10.840;2023-07-09T01:06:45;16.80;99.90
64869;DHT22;51349;52.424;10.840;2023-07-09T01:11:46;16.70;99.90
64869;DHT22;51349;52.424;10.840;2023-07-09T01:17:00;16.80;99.90
64869;DHT22;51349;52.424;10.840;2023-07-09T01:22:01;16.80;99.90
64869;DHT22;51349;52.424;10.840;2023-07-09T01:27:02;16.70;99.90
64869;DHT22;51349;52.424;10.840;2023-07-09T01:32:03;16.60;99.90
64869;DHT22;51349;52.424;10.840;2023-07-09T01:37:05;16.50;99.90
64869;DHT22;51349;52.424;10.840;2023-07-09T01:42:06;16.70;99.90
64869;DHT22;51349;52.424;10.840;2023-07-09T01:47:08;16.70;99.90
64869;DHT22;51349;52.424;10.840;2023-07-09T01:52:09;16.60;99.90
64869;DHT22;51349;52.424;10.840;2023-07-09T01:57:21;16.50;99.90
64869;DHT22;51349;52.424;10.840;2023-07-09T02:02:23;16.40;99.90
64869;DHT22;51349;52.424;10.840;2023-07-09T02:07:25;16.30;99.90
64869;DHT22;51349;52.424;10.840;2023-07-09T02:12:26;16.20;99.90
64869;DHT22;51349;52.424;10.840;2023-07-09T02:17:26;16.10;99.90
64869;DHT22;51349;52.424;10.840;2023-07-09T02:22:27;15.90;99.90
64869;DHT22;51349;52.424;10.840;2023-07-09T02:27:28;15.90;99.90
64869;DHT22;51349;52.424;10.840;2023-07-09T02:32:28;15.80;99.90
64869;DHT22;51349;52.424;10.840;2023-07-09T02:37:29;15.70;99.90
64869;DHT22;51349;52.424;10.840;2023-07-09T02:42:30;15.70;99.90
64869;DHT22;51349;52.424;10.840;2023-07-09T02:47:30;15.60;99.90
64869;DHT22;51349;52.424;10.840;2023-07-09T02:52:31;15.50;99.90
64869;DHT22;51349;52.424;10.840;2023-07-09T02:57:32;15.40;99.90
64869;DHT22;51349;52.424;10.840;2023-07-09T03:02:33;15.40;99.90
64869;DHT22;51349;52.424;10.840;2023-07-09T03:07:34;15.40;99.90
64869;DHT22;51349;52.424;10.840;2023-07-09T03:12:35;15.30;99.90
64869;DHT22;51349;52.424;10.840;2023-07-09T03:17:35;15.30;99.90
64869;DHT22;51349;52.424;10.840;2023-07-09T03:22:36;15.30;99.90
64869;DHT22;51349;52.424;10.840;2023-07-09T03:27:36;15.40;99.90
64869;DHT22;51349;52.424;10.840;2023-07-09T03:32:37;15.60;99.90
64869;DHT22;51349;52.424;10.840;2023-07-09T03:37:38;15.40;99.90
64869;DHT22;51349;52.424;10.840;2023-07-09T03:42:38;15.30;99.90
64869;DHT22;51349;52.424;10.840;2023-07-09T03:47:39;15.30;99.90
64869;DHT22;51349;52.424;10.840;2023-07-09T03:52:40;15.40;99.90
64869;DHT22;51349;52.424;10.840;2023-07-09T03:57:41;15.50;99.90
64869;DHT22;51349;52.424;10.840;2023-07-09T04:02:42;15.50;99.90
64869;DHT22;51349;52.424;10.840;2023-07-09T04:07:44;15.50;99.90
64869;DHT22;51349;52.424;10.840;2023-07-09T04:12:45;15.80;99.90
64869;DHT22;51349;52.424;10.840;2023-07-09T04:17:46;15.90;99.90
64869;DHT22;51349;52.424;10.840;2023-07-09T04:22:46;16.10;99.90
64869;DHT22;51349;52.424;10.840;2023-07-09T04:27:47;16.20;99.90
64869;DHT22;51349;52.424;10.840;2023-07-09T04:32:48;16.30;99.90
64869;DHT22;51349;52.424;10.840;2023-07-09T04:37:48;16.50;99.90
64869;DHT22;51349;52.424;10.840;2023-07-09T04:42:49;16.60;99.90
64869;DHT22;51349;52.424;10.840;2023-07-09T04:47:49;16.80;99.90
64869;DHT22;51349;52.424;10.840;2023-07-09T04:52:50;16.90;99.90
64869;DHT22;51349;52.424;10.840;2023-07-09T04:57:52;17.10;99.90
64869;DHT22;51349;52.424;10.840;2023-07-09T05:02:53;17.30;99.90
64869;DHT22;51349;52.424;10.840;2023-07-09T05:07:54;17.40;99.90
64869;DHT22;51349;52.424;10.840;2023-07-09T05:12:55;17.60;99.90
64869;DHT22;51349;52.424;10.840;2023-07-09T05:17:55;17.80;99.90
64869;DHT22;51349;52.424;10.840;2023-07-09T05:22:56;18.00;99.90
64869;DHT22;51349;52.424;10.840;2023-07-09T05:27:57;18.10;99.90
64869;DHT22;51349;52.424;10.840;2023-07-09T05:32:57;18.30;99.90
64869;DHT22;51349;52.424;10.840;2023-07-09T05:37:59;18.60;99.90
64869;DHT22;51349;52.424;10.840;2023-07-09T05:43:00;18.80;99.90
64869;DHT22;51349;52.424;10.840;2023-07-09T05:48:01;19.00;99.90
64869;DHT22;51349;52.424;10.840;2023-07-09T05:53:01;19.30;99.90
64869;DHT22;51349;52.424;10.840;2023-07-09T05:58:02;19.50;99.90
64869;DHT22;51349;52.424;10.840;2023-07-09T06:03:03;19.80;99.90
64869;DHT22;51349;52.424;10.840;2023-07-09T06:08:07;20.00;99.90
64869;DHT22;51349;52.424;10.840;2023-07-09T06:13:08;20.40;99.90
64869;DHT22;51349;52.424;10.840;2023-07-09T06:18:08;20.60;99.90
64869;DHT22;51349;52.424;10.840;2023-07-09T06:23:09;21.00;99.90
64869;DHT22;51349;52.424;10.840;2023-07-09T06:28:09;21.30;99.90
64869;DHT22;51349;52.424;10.840;2023-07-09T06:33:12;21.60;99.90
64869;DHT22;51349;52.424;10.840;2023-07-09T06:38:13;21.80;99.90
64869;DHT22;51349;52.424;10.840;2023-07-09T06:43:14;22.10;99.90
64869;DHT22;51349;52.424;10.840;2023-07-09T06:48:15;22.30;99.90
64869;DHT22;51349;52.424;10.840;2023-07-09T06:53:15;22.50;99.90
64869;DHT22;51349;52.424;10.840;2023-07-09T06:58:17;22.80;99.90
64869;DHT22;51349;52.424;10.840;2023-07-09T07:03:18;23.10;99.90
64869;DHT22;51349;52.424;10.840;2023-07-09T07:08:21;23.50;99.90
64869;DHT22;51349;52.424;10.840;2023-07-09T07:13:23;23.70;99.90
64869;DHT22;51349;52.424;10.840;2023-07-09T07:18:24;24.00;99.90
64869;DHT22;51349;52.424;10.840;2023-07-09T07:23:24;24.30;99.90
64869;DHT22;51349;52.424;10.840;2023-07-09T07:28:25;24.50;99.70
64869;DHT22;51349;52.424;10.840;2023-07-09T07:33:26;25.10;99.90
64869;DHT22;51349;52.424;10.840;2023-07-09T07:38:26;25.70;99.90
64869;DHT22;51349;52.424;10.840;2023-07-09T07:43:27;25.90;99.30
64869;DHT22;51349;52.424;10.840;2023-07-09T07:48:28;26.30;99.50
64869;DHT22;51349;52.424;10.840;2023-07-09T07:53:29;26.80;97.50
64869;DHT22;51349;52.424;10.840;2023-07-09T07:58:31;27.10;97.80
64869;DHT22;51349;52.424;10.840;2023-07-09T08:03:31;27.70;98.30
64869;DHT22;51349;52.424;10.840;2023-07-09T08:08:32;28.00;95.30
64869;DHT22;51349;52.424;10.840;2023-07-09T08:13:37;29.00;97.50
64869;DHT22;51349;52.424;10.840;2023-07-09T08:18:38;29.50;96.60
64869;DHT22;51349;52.424;10.840;2023-07-09T08:23:39;29.70;96.50
64869;DHT22;51349;52.424;10.840;2023-07-09T08:28:40;29.50;91.60
64869;DHT22;51349;52.424;10.840;2023-07-09T08:33:40;29.30;93.70
64869;DHT22;51349;52.424;10.840;2023-07-09T08:38:41;30.50;95.30
64869;DHT22;51349;52.424;10.840;2023-07-09T08:48:48;30.90;92.00
64869;DHT22;51349;52.424;10.840;2023-07-09T08:54:00;31.00;92.40
64869;DHT22;51349;52.424;10.840;2023-07-09T08:59:02;31.30;91.10
64869;DHT22;51349;52.424;10.840;2023-07-09T09:04:13;31.80;91.70
64869;DHT22;51349;52.424;10.840;2023-07-09T09:09:28;31.90;91.80
64869;DHT22;51349;52.424;10.840;2023-07-09T09:14:42;31.90;88.00
64869;DHT22;51349;52.424;10.840;2023-07-09T09:19:56;32.40;90.90
64869;DHT22;51349;52.424;10.840;2023-07-09T09:30:18;32.60;86.50
64869;DHT22;51349;52.424;10.840;2023-07-09T09:35:20;32.50;87.10
64869;DHT22;51349;52.424;10.840;2023-07-09T09:40:27;32.30;84.30
64869;DHT22;51349;52.424;10.840;2023-07-09T09:45:33;32.40;85.80
64869;DHT22;51349;52.424;10.840;2023-07-09T09:50:34;33.00;85.50
64869;DHT22;51349;52.424;10.840;2023-07-09T09:55:38;32.80;84.20
64869;DHT22;51349;52.424;10.840;2023-07-09T10:00:39;32.80;84.40
64869;DHT22;51349;52.424;10.840;2023-07-09T10:05:56;32.70;84.50
64869;DHT22;51349;52.424;10.840;2023-07-09T10:11:12;32.30;85.90
64869;DHT22;51349;52.424;10.840;2023-07-09T10:21:22;32.00;80.50
64869;DHT22;51349;52.424;10.840;2023-07-09T10:26:36;32.20;80.60
64869;DHT22;51349;52.424;10.840;2023-07-09T10:37:24;32.80;83.60
64869;DHT22;51349;52.424;10.840;2023-07-09T10:42:37;32.60;83.00
64869;DHT22;51349;52.424;10.840;2023-07-09T10:47:47;32.30;81.70
64869;DHT22;51349;52.424;10.840;2023-07-09T10:52:50;32.00;74.70
64869;DHT22;51349;52.424;10.840;2023-07-09T10:58:05;32.20;75.40
64869;DHT22;51349;52.424;10.840;2023-07-09T11:03:28;32.30;76.70
64869;DHT22;51349;52.424;10.840;2023-07-09T11:08:36;32.20;71.30
64869;DHT22;51349;52.424;10.840;2023-07-09T11:13:45;32.30;68.90
64869;DHT22;51349;52.424;10.840;2023-07-09T11:19:02;32.20;69.00
64869;DHT22;51349;52.424;10.840;2023-07-09T11:24:03;32.30;71.10
64869;DHT22;51349;52.424;10.840;2023-07-09T11:39:30;32.40;70.30
64869;DHT22;51349;52.424;10.840;2023-07-09T11:44:33;32.50;71.60
64869;DHT22;51349;52.424;10.840;2023-07-09T11:50:00;32.60;69.70
64869;DHT22;51349;52.424;10.840;2023-07-09T11:55:29;32.60;68.70
64869;DHT22;51349;52.424;10.840;2023-07-09T12:00:38;32.60;69.90
64869;DHT22;51349;52.424;10.840;2023-07-09T12:05:41;32.50;64.40
64869;DHT22;51349;52.424;10.840;2023-07-09T12:10:47;32.40;63.60
64869;DHT22;51349;52.424;10.840;2023-07-09T12:15:47;32.30;67.80
64869;DHT22;51349;52.424;10.840;2023-07-09T12:20:52;32.70;62.10
64869;DHT22;51349;52.424;10.840;2023-07-09T12:25:53;32.40;63.50
64869;DHT22;51349;52.424;10.840;2023-07-09T12:30:54;32.50;66.20
64869;DHT22;51349;52.424;10.840;2023-07-09T12:35:57;32.30;61.00
64869;DHT22;51349;52.424;10.840;2023-07-09T12:41:00;32.30;64.20
64869;DHT22;51349;52.424;10.840;2023-07-09T12:46:01;32.40;69.40
64869;DHT22;51349;52.424;10.840;2023-07-09T12:51:07;32.50;64.60
64869;DHT22;51349;52.424;10.840;2023-07-09T12:56:12;32.50;67.10
64869;DHT22;51349;52.424;10.840;2023-07-09T13:01:16;32.60;67.40
64869;DHT22;51349;52.424;10.840;2023-07-09T13:06:29;32.60;65.70
64869;DHT22;51349;52.424;10.840;2023-07-09T13:11:35;32.60;68.60
64869;DHT22;51349;52.424;10.840;2023-07-09T13:16:40;32.80;64.40
64869;DHT22;51349;52.424;10.840;2023-07-09T13:21:41;32.60;64.20
64869;DHT22;51349;52.424;10.840;2023-07-09T13:26:42;32.70;69.20
64869;DHT22;51349;52.424;10.840;2023-07-09T13:31:44;32.90;62.70
64869;DHT22;51349;52.424;10.840;2023-07-09T13:36:45;32.90;62.80
64869;DHT22;51349;52.424;10.840;2023-07-09T13:41:48;33.00;66.40
64869;DHT22;51349;52.424;10.840;2023-07-09T13:46:48;32.80;63.40
64869;DHT22;51349;52.424;10.840;2023-07-09T13:51:50;32.90;65.10
64869;DHT22;51349;52.424;10.840;2023-07-09T13:56:52;33.00;61.50
64869;DHT22;51349;52.424;10.840;2023-07-09T14:01:55;32.90;60.60
64869;DHT22;51349;52.424;10.840;2023-07-09T14:06:56;32.70;65.30
64869;DHT22;51349;52.424;10.840;2023-07-09T14:11:57;32.30;67.40
64869;DHT22;51349;52.424;10.840;2023-07-09T14:16:58;32.20;73.90
64869;DHT22;51349;52.424;10.840;2023-07-09T14:21:59;32.20;63.10
64869;DHT22;51349;52.424;10.840;2023-07-09T14:27:00;32.30;62.70
64869;DHT22;51349;52.424;10.840;2023-07-09T14:32:00;32.30;65.60
64869;DHT22;51349;52.424;10.840;2023-07-09T14:37:01;32.30;62.20
64869;DHT22;51349;52.424;10.840;2023-07-09T14:42:02;32.40;64.50
64869;DHT22;51349;52.424;10.840;2023-07-09T14:47:13;32.30;66.60
64869;DHT22;51349;52.424;10.840;2023-07-09T14:52:18;32.30;66.30
64869;DHT22;51349;52.424;10.840;2023-07-09T14:57:22;32.30;61.80
64869;DHT22;51349;52.424;10.840;2023-07-09T15:02:33;32.30;67.00
64869;DHT22;51349;52.424;10.840;2023-07-09T15:07:34;32.50;66.10
64869;DHT22;51349;52.424;10.840;2023-07-09T15:12:35;32.50;65.20
64869;DHT22;51349;52.424;10.840;2023-07-09T15:17:36;32.50;62.70
64869;DHT22;51349;52.424;10.840;2023-07-09T15:22:37;32.60;61.70
64869;DHT22;51349;52.424;10.840;2023-07-09T15:27:38;32.60;60.20
64869;DHT22;51349;52.424;10.840;2023-07-09T15:32:38;32.60;65.80
64869;DHT22;51349;52.424;10.840;2023-07-09T15:37:39;32.60;64.10
64869;DHT22;51349;52.424;10.840;2023-07-09T15:42:40;32.80;63.10
64869;DHT22;51349;52.424;10.840;2023-07-09T15:47:41;32.60;60.80
64869;DHT22;51349;52.424;10.840;2023-07-09T15:52:42;32.60;62.10
64869;DHT22;51349;52.424;10.840;2023-07-09T15:57:45;32.60;63.10
64869;DHT22;51349;52.424;10.840;2023-07-09T16:02:49;32.70;59.70
64869;DHT22;51349;52.424;10.840;2023-07-09T16:07:52;32.60;65.40
64869;DHT22;51349;52.424;10.840;2023-07-09T16:12:53;32.80;60.70
64869;DHT22;51349;52.424;10.840;2023-07-09T16:17:54;32.70;61.30
64869;DHT22;51349;52.424;10.840;2023-07-09T16:22:56;32.60;60.70
64869;DHT22;51349;52.424;10.840;2023-07-09T16:27:57;32.70;62.00
64869;DHT22;51349;52.424;10.840;2023-07-09T16:32:58;32.70;62.00
64869;DHT22;51349;52.424;10.840;2023-07-09T16:37:59;32.40;65.50
64869;DHT22;51349;52.424;10.840;2023-07-09T16:43:00;32.20;65.60
64869;DHT22;51349;52.424;10.840;2023-07-09T16:48:02;31.90;65.40
64869;DHT22;51349;52.424;10.840;2023-07-09T16:53:16;32.00;63.60
64869;DHT22;51349;52.424;10.840;2023-07-09T16:58:25;32.00;62.30
64869;DHT22;51349;52.424;10.840;2023-07-09T17:03:29;31.60;69.40
64869;DHT22;51349;52.424;10.840;2023-07-09T17:08:30;31.60;69.90
64869;DHT22;51349;52.424;10.840;2023-07-09T17:13:30;31.20;78.20
64869;DHT22;51349;52.424;10.840;2023-07-09T17:18:32;31.00;75.00
64869;DHT22;51349;52.424;10.840;2023-07-09T17:23:33;30.80;74.30
64869;DHT22;51349;52.424;10.840;2023-07-09T17:28:34;30.80;69.30
64869;DHT22;51349;52.424;10.840;2023-07-09T17:33:36;30.80;72.70
64869;DHT22;51349;52.424;10.840;2023-07-09T17:38:37;30.30;73.80
64869;DHT22;51349;52.424;10.840;2023-07-09T17:43:38;30.20;74.00
64869;DHT22;51349;52.424;10.840;2023-07-09T17:48:38;30.00;76.20
64869;DHT22;51349;52.424;10.840;2023-07-09T17:53:39;29.60;80.10
64869;DHT22;51349;52.424;10.840;2023-07-09T17:58:39;29.50;84.30
64869;DHT22;51349;52.424;10.840;2023-07-09T18:03:41;29.20;86.30
64869;DHT22;51349;52.424;10.840;2023-07-09T18:08:42;29.00;87.60
64869;DHT22;51349;52.424;10.840;2023-07-09T18:13:43;28.90;90.40
64869;DHT22;51349;52.424;10.840;2023-07-09T18:18:43;28.70;86.30
64869;DHT22;51349;52.424;10.840;2023-07-09T18:23:44;28.50;91.50
64869;DHT22;51349;52.424;10.840;2023-07-09T18:28:45;28.50;91.60
64869;DHT22;51349;52.424;10.840;2023-07-09T18:33:46;28.50;91.60
64869;DHT22;51349;52.424;10.840;2023-07-09T18:38:46;28.20;93.00
64869;DHT22;51349;52.424;10.840;2023-07-09T18:43:48;28.00;92.60
64869;DHT22;51349;52.424;10.840;2023-07-09T18:48:49;27.80;93.30
64869;DHT22;51349;52.424;10.840;2023-07-09T18:53:50;27.70;93.70
64869;DHT22;51349;52.424;10.840;2023-07-09T18:58:50;27.60;93.00
64869;DHT22;51349;52.424;10.840;2023-07-09T19:03:51;27.40;94.70
64869;DHT22;51349;52.424;10.840;2023-07-09T19:08:52;27.10;94.90
64869;DHT22;51349;52.424;10.840;2023-07-09T19:13:52;27.00;94.60
64869;DHT22;51349;52.424;10.840;2023-07-09T19:18:53;26.70;94.90
64869;DHT22;51349;52.424;10.840;2023-07-09T19:23:54;26.50;95.30
64869;DHT22;51349;52.424;10.840;2023-07-09T19:28:55;26.40;95.90
64869;DHT22;51349;52.424;10.840;2023-07-09T19:33:56;26.10;95.80
64869;DHT22;51349;52.424;10.840;2023-07-09T19:38:56;26.00;96.50
64869;DHT22;51349;52.424;10.840;2023-07-09T19:43:57;25.90;96.90
64869;DHT22;51349;52.424;10.840;2023-07-09T19:48:58;25.80;97.40
64869;DHT22;51349;52.424;10.840;2023-07-09T19:53:58;25.70;97.20
64869;DHT22;51349;52.424;10.840;2023-07-09T19:58:59;25.50;97.20
64869;DHT22;51349;52.424;10.840;2023-07-09T20:03:59;25.40;96.80
64869;DHT22;51349;52.424;10.840;2023-07-09T20:09:00;25.40;97.40
64869;DHT22;51349;52.424;10.840;2023-07-09T20:14:07;25.20;97.80
64869;DHT22;51349;52.424;10.840;2023-07-09T20:19:11;25.20;99.00
64869;DHT22;51349;52.424;10.840;2023-07-09T20:24:21;25.20;97.60
64869;DHT22;51349;52.424;10.840;2023-07-09T20:29:22;25.50;96.20
64869;DHT22;51349;52.424;10.840;2023-07-09T20:34:23;25.80;94.20
64869;DHT22;51349;52.424;10.840;2023-07-09T20:39:24;26.10;93.70
64869;DHT22;51349;52.424;10.840;2023-07-09T20:44:26;25.90;94.00
64869;DHT22;51349;52.424;10.840;2023-07-09T20:49:29;25.90;94.40
64869;DHT22;51349;52.424;10.840;2023-07-09T20:54:34;25.80;93.20
64869;DHT22;51349;52.424;10.840;2023-07-09T20:59:35;25.70;94.50
64869;DHT22;51349;52.424;10.840;2023-07-09T21:04:35;25.60;94.60
64869;DHT22;51349;52.424;10.840;2023-07-09T21:09:37;25.50;94.90
64869;DHT22;51349;52.424;10.840;2023-07-09T21:14:38;25.30;95.40
64869;DHT22;51349;52.424;10.840;2023-07-09T21:19:39;25.30;95.40
64869;DHT22;51349;52.424;10.840;2023-07-09T21:24:40;25.20;95.90
64869;DHT22;51349;52.424;10.840;2023-07-09T21:29:41;25.00;96.50
64869;DHT22;51349;52.424;10.840;2023-07-09T21:34:41;24.90;96.70
64869;DHT22;51349;52.424;10.840;2023-07-09T21:39:43;24.80;96.80
64869;DHT22;51349;52.424;10.840;2023-07-09T21:44:44;24.50;97.40
64869;DHT22;51349;52.424;10.840;2023-07-09T21:49:44;24.50;97.50
64869;DHT22;51349;52.424;10.840;2023-07-09T21:54:45;24.30;98.30
64869;DHT22;51349;52.424;10.840;2023-07-09T21:59:49;24.00;99.00
64869;DHT22;51349;52.424;10.840;2023-07-09T22:04:50;23.60;99.90
64869;DHT22;51349;52.424;10.840;2023-07-09T22:09:55;23.40;99.90
64869;DHT22;51349;52.424;10.840;2023-07-09T22:14:58;23.00;99.90
64869;DHT22;51349;52.424;10.840;2023-07-09T22:20:04;22.80;99.90
64869;DHT22;51349;52.424;10.840;2023-07-09T22:25:16;22.70;99.90
64869;DHT22;51349;52.424;10.840;2023-07-09T22:30:18;22.20;99.90
64869;DHT22;51349;52.424;10.840;2023-07-09T22:35:23;22.10;99.90
64869;DHT22;51349;52.424;10.840;2023-07-09T22:40:27;22.10;99.90
64869;DHT22;51349;52.424;10.840;2023-07-09T22:45:28;21.90;99.90
64869;DHT22;51349;52.424;10.840;2023-07-09T22:50:36;21.80;99.90
64869;DHT22;51349;52.424;10.840;2023-07-09T22:55:40;21.60;99.90
64869;DHT22;51349;52.424;10.840;2023-07-09T23:00:47;21.60;99.90
64869;DHT22;51349;52.424;10.840;2023-07-09T23:05:49;21.50;99.90
64869;DHT22;51349;52.424;10.840;2023-07-09T23:10:53;21.40;99.90
64869;DHT22;51349;52.424;10.840;2023-07-09T23:15:55;21.30;99.90
64869;DHT22;51349;52.424;10.840;2023-07-09T23:20:56;21.20;99.90
64869;DHT22;51349;52.424;10.840;2023-07-09T23:25:57;21.10;99.90
64869;DHT22;51349;52.424;10.840;2023-07-09T23:30:57;21.00;99.90
64869;DHT22;51349;52.424;10.840;2023-07-09T23:36:01;21.00;99.90
64869;DHT22;51349;52.424;10.840;2023-07-09T23:41:08;20.90;99.90
64869;DHT22;51349;52.424;10.840;2023-07-09T23:46:13;20.80;99.90
64869;DHT22;51349;52.424;10.840;2023-07-09T23:51:14;20.70;99.90
64869;DHT22;51349;52.424;10.840;2023-07-09T23:56:22;20.60;99.90
